sensor_id;sensor_type;location;lat;lon;timestamp;P1;durP1;ratioP1;P2;durP2;ratioP2
13244;SDS011;6689;53.400;12.486;2023-03-18T00:01:13;9.55;;;6.95;;
13244;SDS011;6689;53.400;12.486;2023-03-18T00:03:42;8.45;;;6.35;;
13244;SDS011;6689;53.400;12.486;2023-03-18T00:06:10;13.18;;;6.90;;
13244;SDS011;6689;53.400;12.486;2023-03-18T00:08:40;10.18;;;6.63;;
13244;SDS011;6689;53.400;12.486;2023-03-18T00:11:09;10.45;;;5.70;;
13244;SDS011;6689;53.400;12.486;2023-03-18T00:13:38;10.02;;;6.82;;
13244;SDS011;6689;53.400;12.486;2023-03-18T00:16:07;11.23;;;6.78;;
13244;SDS011;6689;53.400;12.486;2023-03-18T00:18:36;11.38;;;7.20;;
13244;SDS011;6689;53.400;12.486;2023-03-18T00:21:06;8.57;;;6.28;;
13244;SDS011;6689;53.400;12.486;2023-03-18T00:23:34;9.15;;;6.47;;
13244;SDS011;6689;53.400;12.486;2023-03-18T00:26:03;10.27;;;5.95;;
13244;SDS011;6689;53.400;12.486;2023-03-18T00:28:33;9.40;;;6.75;;
13244;SDS011;6689;53.400;12.486;2023-03-18T00:31:02;12.70;;;7.10;;
13244;SDS011;6689;53.400;12.486;2023-03-18T00:33:32;9.60;;;6.70;;
13244;SDS011;6689;53.400;12.486;2023-03-18T00:36:00;9.80;;;6.43;;
13244;SDS011;6689;53.400;12.486;2023-03-18T00:38:29;10.13;;;7.13;;
13244;SDS011;6689;53.400;12.486;2023-03-18T00:40:57;11.45;;;7.65;;
13244;SDS011;6689;53.400;12.486;2023-03-18T00:43:35;11.93;;;7.00;;
13244;SDS011;6689;53.400;12.486;2023-03-18T00:46:10;9.80;;;7.00;;
13244;SDS011;6689;53.400;12.486;2023-03-18T00:48:40;13.05;;;7.75;;
13244;SDS011;6689;53.400;12.486;2023-03-18T00:51:08;10.52;;;7.13;;
13244;SDS011;6689;53.400;12.486;2023-03-18T00:53:39;11.80;;;7.75;;
13244;SDS011;6689;53.400;12.486;2023-03-18T00:56:06;10.90;;;6.90;;
13244;SDS011;6689;53.400;12.486;2023-03-18T00:58:34;12.57;;;8.77;;
13244;SDS011;6689;53.400;12.486;2023-03-18T01:01:02;11.93;;;7.68;;
13244;SDS011;6689;53.400;12.486;2023-03-18T01:03:30;12.35;;;7.80;;
13244;SDS011;6689;53.400;12.486;2023-03-18T01:05:58;10.10;;;6.88;;
13244;SDS011;6689;53.400;12.486;2023-03-18T01:08:26;12.57;;;8.18;;
13244;SDS011;6689;53.400;12.486;2023-03-18T01:10:55;9.20;;;7.18;;
13244;SDS011;6689;53.400;12.486;2023-03-18T01:13:24;12.73;;;7.72;;
13244;SDS011;6689;53.400;12.486;2023-03-18T01:15:51;10.57;;;7.78;;
13244;SDS011;6689;53.400;12.486;2023-03-18T01:18:19;10.48;;;7.72;;
13244;SDS011;6689;53.400;12.486;2023-03-18T01:20:46;12.23;;;7.07;;
13244;SDS011;6689;53.400;12.486;2023-03-18T01:23:13;9.88;;;7.20;;
13244;SDS011;6689;53.400;12.486;2023-03-18T01:25:41;12.07;;;7.80;;
13244;SDS011;6689;53.400;12.486;2023-03-18T01:28:10;11.65;;;8.02;;
13244;SDS011;6689;53.400;12.486;2023-03-18T01:30:38;11.73;;;8.70;;
13244;SDS011;6689;53.400;12.486;2023-03-18T01:33:06;10.93;;;7.57;;
13244;SDS011;6689;53.400;12.486;2023-03-18T01:35:34;12.73;;;7.85;;
13244;SDS011;6689;53.400;12.486;2023-03-18T01:38:02;11.23;;;7.18;;
13244;SDS011;6689;53.400;12.486;2023-03-18T01:40:30;10.52;;;8.18;;
13244;SDS011;6689;53.400;12.486;2023-03-18T01:43:03;12.32;;;7.65;;
13244;SDS011;6689;53.400;12.486;2023-03-18T01:45:41;10.68;;;7.72;;
13244;SDS011;6689;53.400;12.486;2023-03-18T01:48:12;11.35;;;8.95;;
13244;SDS011;6689;53.400;12.486;2023-03-18T01:50:41;11.35;;;7.72;;
13244;SDS011;6689;53.400;12.486;2023-03-18T01:53:10;11.98;;;8.20;;
13244;SDS011;6689;53.400;12.486;2023-03-18T01:55:43;11.02;;;7.93;;
13244;SDS011;6689;53.400;12.486;2023-03-18T01:58:13;12.75;;;8.77;;
13244;SDS011;6689;53.400;12.486;2023-03-18T02:00:47;10.45;;;7.07;;
13244;SDS011;6689;53.400;12.486;2023-03-18T02:03:19;9.45;;;7.35;;
13244;SDS011;6689;53.400;12.486;2023-03-18T02:05:47;14.18;;;8.30;;
13244;SDS011;6689;53.400;12.486;2023-03-18T02:08:15;14.05;;;8.35;;
13244;SDS011;6689;53.400;12.486;2023-03-18T02:10:43;11.90;;;8.35;;
13244;SDS011;6689;53.400;12.486;2023-03-18T02:13:11;14.02;;;8.10;;
13244;SDS011;6689;53.400;12.486;2023-03-18T02:15:43;13.48;;;7.32;;
13244;SDS011;6689;53.400;12.486;2023-03-18T02:18:18;14.93;;;8.15;;
13244;SDS011;6689;53.400;12.486;2023-03-18T02:23:50;13.52;;;8.38;;
13244;SDS011;6689;53.400;12.486;2023-03-18T02:26:25;10.10;;;7.85;;
13244;SDS011;6689;53.400;12.486;2023-03-18T02:28:59;15.47;;;8.73;;
13244;SDS011;6689;53.400;12.486;2023-03-18T02:31:30;10.93;;;8.18;;
13244;SDS011;6689;53.400;12.486;2023-03-18T02:34:00;12.57;;;8.82;;
13244;SDS011;6689;53.400;12.486;2023-03-18T02:36:28;12.18;;;8.40;;
13244;SDS011;6689;53.400;12.486;2023-03-18T02:38:57;12.73;;;7.75;;
13244;SDS011;6689;53.400;12.486;2023-03-18T02:41:25;11.93;;;8.18;;
13244;SDS011;6689;53.400;12.486;2023-03-18T02:43:56;17.23;;;8.60;;
13244;SDS011;6689;53.400;12.486;2023-03-18T02:46:29;13.93;;;8.88;;
13244;SDS011;6689;53.400;12.486;2023-03-18T02:49:04;11.02;;;7.55;;
13244;SDS011;6689;53.400;12.486;2023-03-18T02:51:33;10.00;;;7.40;;
13244;SDS011;6689;53.400;12.486;2023-03-18T02:54:03;13.55;;;9.15;;
13244;SDS011;6689;53.400;12.486;2023-03-18T02:56:32;10.90;;;8.30;;
13244;SDS011;6689;53.400;12.486;2023-03-18T02:59:00;13.88;;;7.88;;
13244;SDS011;6689;53.400;12.486;2023-03-18T03:01:29;14.23;;;7.88;;
13244;SDS011;6689;53.400;12.486;2023-03-18T03:03:58;10.80;;;8.18;;
13244;SDS011;6689;53.400;12.486;2023-03-18T03:06:25;11.35;;;7.63;;
13244;SDS011;6689;53.400;12.486;2023-03-18T03:08:53;13.07;;;7.88;;
13244;SDS011;6689;53.400;12.486;2023-03-18T03:11:22;12.05;;;8.43;;
13244;SDS011;6689;53.400;12.486;2023-03-18T03:13:50;15.15;;;8.55;;
13244;SDS011;6689;53.400;12.486;2023-03-18T03:16:17;13.05;;;8.10;;
13244;SDS011;6689;53.400;12.486;2023-03-18T03:18:46;11.10;;;8.15;;
13244;SDS011;6689;53.400;12.486;2023-03-18T03:21:14;11.35;;;7.57;;
13244;SDS011;6689;53.400;12.486;2023-03-18T03:23:42;14.05;;;7.88;;
13244;SDS011;6689;53.400;12.486;2023-03-18T03:26:10;11.65;;;7.97;;
13244;SDS011;6689;53.400;12.486;2023-03-18T03:28:37;11.35;;;7.72;;
13244;SDS011;6689;53.400;12.486;2023-03-18T03:31:05;11.35;;;8.35;;
13244;SDS011;6689;53.400;12.486;2023-03-18T03:33:33;17.00;;;9.05;;
13244;SDS011;6689;53.400;12.486;2023-03-18T03:36:02;10.52;;;7.53;;
13244;SDS011;6689;53.400;12.486;2023-03-18T03:38:30;10.40;;;7.90;;
13244;SDS011;6689;53.400;12.486;2023-03-18T03:40:58;14.07;;;8.55;;
13244;SDS011;6689;53.400;12.486;2023-03-18T03:43:26;10.57;;;8.60;;
13244;SDS011;6689;53.400;12.486;2023-03-18T03:45:54;11.75;;;8.60;;
13244;SDS011;6689;53.400;12.486;2023-03-18T03:48:21;14.85;;;8.23;;
13244;SDS011;6689;53.400;12.486;2023-03-18T03:50:49;14.25;;;9.05;;
13244;SDS011;6689;53.400;12.486;2023-03-18T03:53:18;13.35;;;8.15;;
13244;SDS011;6689;53.400;12.486;2023-03-18T03:55:46;14.35;;;8.73;;
13244;SDS011;6689;53.400;12.486;2023-03-18T03:58:13;13.55;;;9.55;;
13244;SDS011;6689;53.400;12.486;2023-03-18T04:00:41;12.18;;;8.68;;
13244;SDS011;6689;53.400;12.486;2023-03-18T04:03:08;10.65;;;7.97;;
13244;SDS011;6689;53.400;12.486;2023-03-18T04:05:36;13.50;;;8.30;;
13244;SDS011;6689;53.400;12.486;2023-03-18T04:08:03;11.32;;;8.55;;
13244;SDS011;6689;53.400;12.486;2023-03-18T04:10:32;11.80;;;8.15;;
13244;SDS011;6689;53.400;12.486;2023-03-18T04:13:00;12.75;;;8.45;;
13244;SDS011;6689;53.400;12.486;2023-03-18T04:15:28;11.98;;;8.48;;
13244;SDS011;6689;53.400;12.486;2023-03-18T04:17:56;13.02;;;8.63;;
13244;SDS011;6689;53.400;12.486;2023-03-18T04:20:26;11.27;;;8.48;;
13244;SDS011;6689;53.400;12.486;2023-03-18T04:22:53;14.05;;;8.82;;
13244;SDS011;6689;53.400;12.486;2023-03-18T04:25:21;11.65;;;7.68;;
13244;SDS011;6689;53.400;12.486;2023-03-18T04:27:50;10.98;;;8.05;;
13244;SDS011;6689;53.400;12.486;2023-03-18T04:30:17;12.73;;;8.70;;
13244;SDS011;6689;53.400;12.486;2023-03-18T04:32:47;10.65;;;8.07;;
13244;SDS011;6689;53.400;12.486;2023-03-18T04:35:16;12.45;;;8.60;;
13244;SDS011;6689;53.400;12.486;2023-03-18T04:37:43;15.55;;;8.93;;
13244;SDS011;6689;53.400;12.486;2023-03-18T04:40:11;12.38;;;8.57;;
13244;SDS011;6689;53.400;12.486;2023-03-18T04:42:38;14.07;;;8.88;;
13244;SDS011;6689;53.400;12.486;2023-03-18T04:45:08;10.43;;;8.20;;
13244;SDS011;6689;53.400;12.486;2023-03-18T04:47:37;11.38;;;8.27;;
13244;SDS011;6689;53.400;12.486;2023-03-18T04:50:04;12.77;;;8.25;;
13244;SDS011;6689;53.400;12.486;2023-03-18T04:52:36;11.35;;;7.97;;
13244;SDS011;6689;53.400;12.486;2023-03-18T04:55:04;9.23;;;7.68;;
13244;SDS011;6689;53.400;12.486;2023-03-18T04:57:33;12.95;;;7.80;;
13244;SDS011;6689;53.400;12.486;2023-03-18T05:00:03;11.32;;;8.88;;
13244;SDS011;6689;53.400;12.486;2023-03-18T05:02:33;12.23;;;8.57;;
13244;SDS011;6689;53.400;12.486;2023-03-18T05:05:00;12.57;;;8.05;;
13244;SDS011;6689;53.400;12.486;2023-03-18T05:07:28;15.40;;;8.15;;
13244;SDS011;6689;53.400;12.486;2023-03-18T05:09:56;12.07;;;8.23;;
13244;SDS011;6689;53.400;12.486;2023-03-18T05:12:23;10.40;;;7.43;;
13244;SDS011;6689;53.400;12.486;2023-03-18T05:14:51;12.02;;;8.18;;
13244;SDS011;6689;53.400;12.486;2023-03-18T05:17:18;12.00;;;8.60;;
13244;SDS011;6689;53.400;12.486;2023-03-18T05:19:47;12.32;;;8.35;;
13244;SDS011;6689;53.400;12.486;2023-03-18T05:22:15;15.63;;;9.32;;
13244;SDS011;6689;53.400;12.486;2023-03-18T05:24:44;10.52;;;7.88;;
13244;SDS011;6689;53.400;12.486;2023-03-18T05:27:13;11.25;;;8.43;;
13244;SDS011;6689;53.400;12.486;2023-03-18T05:29:41;13.18;;;8.95;;
13244;SDS011;6689;53.400;12.486;2023-03-18T05:32:09;14.60;;;9.20;;
13244;SDS011;6689;53.400;12.486;2023-03-18T05:34:39;13.35;;;8.43;;
13244;SDS011;6689;53.400;12.486;2023-03-18T05:37:09;12.55;;;8.80;;
13244;SDS011;6689;53.400;12.486;2023-03-18T05:39:38;11.93;;;8.15;;
13244;SDS011;6689;53.400;12.486;2023-03-18T05:42:06;10.10;;;8.45;;
13244;SDS011;6689;53.400;12.486;2023-03-18T05:44:34;11.48;;;9.02;;
13244;SDS011;6689;53.400;12.486;2023-03-18T05:47:01;12.32;;;8.93;;
13244;SDS011;6689;53.400;12.486;2023-03-18T05:49:28;17.42;;;9.80;;
13244;SDS011;6689;53.400;12.486;2023-03-18T05:51:56;13.98;;;8.57;;
13244;SDS011;6689;53.400;12.486;2023-03-18T05:54:27;11.82;;;8.20;;
13244;SDS011;6689;53.400;12.486;2023-03-18T05:56:54;12.07;;;10.40;;
13244;SDS011;6689;53.400;12.486;2023-03-18T05:59:22;14.35;;;10.10;;
13244;SDS011;6689;53.400;12.486;2023-03-18T06:01:51;14.02;;;9.63;;
13244;SDS011;6689;53.400;12.486;2023-03-18T06:04:19;16.67;;;9.20;;
13244;SDS011;6689;53.400;12.486;2023-03-18T06:06:46;17.33;;;10.30;;
13244;SDS011;6689;53.400;12.486;2023-03-18T06:09:13;14.98;;;10.13;;
13244;SDS011;6689;53.400;12.486;2023-03-18T06:11:42;13.48;;;9.55;;
13244;SDS011;6689;53.400;12.486;2023-03-18T06:14:10;11.43;;;8.82;;
13244;SDS011;6689;53.400;12.486;2023-03-18T06:16:38;15.82;;;9.75;;
13244;SDS011;6689;53.400;12.486;2023-03-18T06:19:07;16.83;;;10.45;;
13244;SDS011;6689;53.400;12.486;2023-03-18T06:21:36;12.35;;;9.40;;
13244;SDS011;6689;53.400;12.486;2023-03-18T06:24:03;18.02;;;9.85;;
13244;SDS011;6689;53.400;12.486;2023-03-18T06:26:31;11.60;;;8.93;;
13244;SDS011;6689;53.400;12.486;2023-03-18T06:28:59;11.65;;;8.38;;
13244;SDS011;6689;53.400;12.486;2023-03-18T06:31:28;13.63;;;9.18;;
13244;SDS011;6689;53.400;12.486;2023-03-18T06:33:55;14.32;;;10.40;;
13244;SDS011;6689;53.400;12.486;2023-03-18T06:36:23;12.30;;;10.00;;
13244;SDS011;6689;53.400;12.486;2023-03-18T06:38:50;13.90;;;10.10;;
13244;SDS011;6689;53.400;12.486;2023-03-18T06:41:18;12.68;;;10.80;;
13244;SDS011;6689;53.400;12.486;2023-03-18T06:43:45;13.52;;;9.75;;
13244;SDS011;6689;53.400;12.486;2023-03-18T06:46:16;12.95;;;9.27;;
13244;SDS011;6689;53.400;12.486;2023-03-18T06:48:43;13.82;;;9.68;;
13244;SDS011;6689;53.400;12.486;2023-03-18T06:51:10;15.55;;;10.93;;
13244;SDS011;6689;53.400;12.486;2023-03-18T06:53:37;14.07;;;9.98;;
13244;SDS011;6689;53.400;12.486;2023-03-18T06:56:06;14.18;;;9.75;;
13244;SDS011;6689;53.400;12.486;2023-03-18T06:58:34;12.43;;;9.80;;
13244;SDS011;6689;53.400;12.486;2023-03-18T07:01:02;15.93;;;10.98;;
13244;SDS011;6689;53.400;12.486;2023-03-18T07:03:30;16.90;;;10.30;;
13244;SDS011;6689;53.400;12.486;2023-03-18T07:05:58;13.80;;;9.45;;
13244;SDS011;6689;53.400;12.486;2023-03-18T07:08:26;13.68;;;10.55;;
13244;SDS011;6689;53.400;12.486;2023-03-18T07:10:54;13.77;;;9.35;;
13244;SDS011;6689;53.400;12.486;2023-03-18T07:13:22;12.80;;;10.55;;
13244;SDS011;6689;53.400;12.486;2023-03-18T07:15:49;13.52;;;10.00;;
13244;SDS011;6689;53.400;12.486;2023-03-18T07:18:20;11.93;;;9.88;;
13244;SDS011;6689;53.400;12.486;2023-03-18T07:20:49;10.60;;;8.70;;
13244;SDS011;6689;53.400;12.486;2023-03-18T07:23:16;12.57;;;9.60;;
13244;SDS011;6689;53.400;12.486;2023-03-18T07:25:44;12.98;;;10.30;;
13244;SDS011;6689;53.400;12.486;2023-03-18T07:28:11;16.83;;;10.32;;
13244;SDS011;6689;53.400;12.486;2023-03-18T07:30:38;12.13;;;9.55;;
13244;SDS011;6689;53.400;12.486;2023-03-18T07:33:05;12.38;;;9.95;;
13244;SDS011;6689;53.400;12.486;2023-03-18T07:35:33;11.85;;;9.18;;
13244;SDS011;6689;53.400;12.486;2023-03-18T07:38:03;13.05;;;8.85;;
13244;SDS011;6689;53.400;12.486;2023-03-18T07:40:30;10.85;;;9.10;;
13244;SDS011;6689;53.400;12.486;2023-03-18T07:42:58;12.75;;;9.07;;
13244;SDS011;6689;53.400;12.486;2023-03-18T07:45:25;12.80;;;9.18;;
13244;SDS011;6689;53.400;12.486;2023-03-18T07:47:53;13.32;;;9.48;;
13244;SDS011;6689;53.400;12.486;2023-03-18T07:50:20;12.57;;;8.70;;
13244;SDS011;6689;53.400;12.486;2023-03-18T07:52:48;11.63;;;9.05;;
13244;SDS011;6689;53.400;12.486;2023-03-18T07:55:17;13.52;;;9.23;;
13244;SDS011;6689;53.400;12.486;2023-03-18T07:57:45;9.90;;;7.85;;
13244;SDS011;6689;53.400;12.486;2023-03-18T08:00:13;14.50;;;9.45;;
13244;SDS011;6689;53.400;12.486;2023-03-18T08:02:41;16.10;;;8.55;;
13244;SDS011;6689;53.400;12.486;2023-03-18T08:05:09;12.30;;;8.77;;
13244;SDS011;6689;53.400;12.486;2023-03-18T08:07:37;12.93;;;8.55;;
13244;SDS011;6689;53.400;12.486;2023-03-18T08:10:05;9.90;;;8.00;;
13244;SDS011;6689;53.400;12.486;2023-03-18T08:12:35;9.13;;;7.75;;
13244;SDS011;6689;53.400;12.486;2023-03-18T08:15:03;16.75;;;8.70;;
13244;SDS011;6689;53.400;12.486;2023-03-18T08:17:31;10.05;;;8.40;;
13244;SDS011;6689;53.400;12.486;2023-03-18T08:19:59;11.07;;;8.90;;
13244;SDS011;6689;53.400;12.486;2023-03-18T08:22:26;11.70;;;8.40;;
13244;SDS011;6689;53.400;12.486;2023-03-18T08:24:53;11.75;;;7.70;;
13244;SDS011;6689;53.400;12.486;2023-03-18T08:27:22;9.90;;;7.80;;
13244;SDS011;6689;53.400;12.486;2023-03-18T08:29:50;9.50;;;8.00;;
13244;SDS011;6689;53.400;12.486;2023-03-18T08:32:18;10.60;;;7.78;;
13244;SDS011;6689;53.400;12.486;2023-03-18T08:34:46;11.75;;;8.07;;
13244;SDS011;6689;53.400;12.486;2023-03-18T08:37:13;9.55;;;7.93;;
13244;SDS011;6689;53.400;12.486;2023-03-18T08:39:40;10.05;;;7.47;;
13244;SDS011;6689;53.400;12.486;2023-03-18T08:42:09;11.98;;;7.80;;
13244;SDS011;6689;53.400;12.486;2023-03-18T08:44:36;12.55;;;8.65;;
13244;SDS011;6689;53.400;12.486;2023-03-18T08:47:06;12.40;;;8.13;;
13244;SDS011;6689;53.400;12.486;2023-03-18T08:49:35;10.77;;;7.88;;
13244;SDS011;6689;53.400;12.486;2023-03-18T08:52:03;9.07;;;7.63;;
13244;SDS011;6689;53.400;12.486;2023-03-18T08:54:31;13.52;;;7.75;;
13244;SDS011;6689;53.400;12.486;2023-03-18T08:56:58;12.85;;;8.40;;
13244;SDS011;6689;53.400;12.486;2023-03-18T08:59:26;15.55;;;7.80;;
13244;SDS011;6689;53.400;12.486;2023-03-18T09:01:53;11.57;;;7.32;;
13244;SDS011;6689;53.400;12.486;2023-03-18T09:04:22;14.93;;;7.78;;
13244;SDS011;6689;53.400;12.486;2023-03-18T09:06:50;14.65;;;8.27;;
13244;SDS011;6689;53.400;12.486;2023-03-18T09:09:17;11.55;;;8.15;;
13244;SDS011;6689;53.400;12.486;2023-03-18T09:11:44;12.68;;;8.13;;
13244;SDS011;6689;53.400;12.486;2023-03-18T09:14:12;11.13;;;7.72;;
13244;SDS011;6689;53.400;12.486;2023-03-18T09:16:39;10.68;;;8.27;;
13244;SDS011;6689;53.400;12.486;2023-03-18T09:19:07;13.90;;;8.93;;
13244;SDS011;6689;53.400;12.486;2023-03-18T09:21:36;13.80;;;9.27;;
13244;SDS011;6689;53.400;12.486;2023-03-18T09:24:03;13.82;;;8.68;;
13244;SDS011;6689;53.400;12.486;2023-03-18T09:26:30;13.65;;;8.52;;
13244;SDS011;6689;53.400;12.486;2023-03-18T09:28:58;10.02;;;7.57;;
13244;SDS011;6689;53.400;12.486;2023-03-18T09:31:25;14.55;;;8.45;;
13244;SDS011;6689;53.400;12.486;2023-03-18T09:33:52;11.55;;;9.07;;
13244;SDS011;6689;53.400;12.486;2023-03-18T09:36:19;10.63;;;9.27;;
13244;SDS011;6689;53.400;12.486;2023-03-18T09:38:48;15.18;;;8.85;;
13244;SDS011;6689;53.400;12.486;2023-03-18T09:41:19;11.48;;;8.38;;
13244;SDS011;6689;53.400;12.486;2023-03-18T09:43:57;11.30;;;9.30;;
13244;SDS011;6689;53.400;12.486;2023-03-18T09:46:34;11.63;;;8.85;;
13244;SDS011;6689;53.400;12.486;2023-03-18T09:49:14;10.40;;;8.57;;
13244;SDS011;6689;53.400;12.486;2023-03-18T09:51:52;14.18;;;9.10;;
13244;SDS011;6689;53.400;12.486;2023-03-18T09:54:30;12.82;;;8.63;;
13244;SDS011;6689;53.400;12.486;2023-03-18T09:57:03;12.50;;;8.40;;
13244;SDS011;6689;53.400;12.486;2023-03-18T09:59:37;10.00;;;8.07;;
13244;SDS011;6689;53.400;12.486;2023-03-18T10:02:13;11.20;;;8.18;;
13244;SDS011;6689;53.400;12.486;2023-03-18T10:04:46;13.55;;;8.23;;
13244;SDS011;6689;53.400;12.486;2023-03-18T10:07:18;12.23;;;8.48;;
13244;SDS011;6689;53.400;12.486;2023-03-18T10:09:51;10.02;;;7.82;;
13244;SDS011;6689;53.400;12.486;2023-03-18T10:12:23;10.73;;;7.88;;
13244;SDS011;6689;53.400;12.486;2023-03-18T10:14:58;10.35;;;8.15;;
13244;SDS011;6689;53.400;12.486;2023-03-18T10:17:34;12.63;;;8.52;;
13244;SDS011;6689;53.400;12.486;2023-03-18T10:20:10;10.63;;;7.70;;
13244;SDS011;6689;53.400;12.486;2023-03-18T10:22:47;16.00;;;8.38;;
13244;SDS011;6689;53.400;12.486;2023-03-18T10:25:26;15.38;;;8.48;;
13244;SDS011;6689;53.400;12.486;2023-03-18T10:30:56;12.75;;;8.52;;
13244;SDS011;6689;53.400;12.486;2023-03-18T10:33:36;13.25;;;8.30;;
13244;SDS011;6689;53.400;12.486;2023-03-18T10:36:11;11.95;;;8.20;;
13244;SDS011;6689;53.400;12.486;2023-03-18T10:38:43;13.15;;;9.38;;
13244;SDS011;6689;53.400;12.486;2023-03-18T10:41:15;11.23;;;8.07;;
13244;SDS011;6689;53.400;12.486;2023-03-18T10:43:47;15.30;;;8.15;;
13244;SDS011;6689;53.400;12.486;2023-03-18T10:46:17;10.07;;;8.07;;
13244;SDS011;6689;53.400;12.486;2023-03-18T10:48:48;12.00;;;7.88;;
13244;SDS011;6689;53.400;12.486;2023-03-18T10:51:19;14.45;;;8.43;;
13244;SDS011;6689;53.400;12.486;2023-03-18T10:53:54;12.85;;;9.07;;
13244;SDS011;6689;53.400;12.486;2023-03-18T10:56:26;11.15;;;8.30;;
13244;SDS011;6689;53.400;12.486;2023-03-18T10:58:53;15.73;;;9.10;;
13244;SDS011;6689;53.400;12.486;2023-03-18T11:01:22;13.32;;;9.18;;
13244;SDS011;6689;53.400;12.486;2023-03-18T11:03:57;14.85;;;9.02;;
13244;SDS011;6689;53.400;12.486;2023-03-18T11:06:29;12.63;;;9.25;;
13244;SDS011;6689;53.400;12.486;2023-03-18T11:09:04;15.57;;;8.55;;
13244;SDS011;6689;53.400;12.486;2023-03-18T11:11:35;13.95;;;8.93;;
13244;SDS011;6689;53.400;12.486;2023-03-18T11:14:06;14.00;;;8.98;;
13244;SDS011;6689;53.400;12.486;2023-03-18T11:16:39;12.65;;;10.25;;
13244;SDS011;6689;53.400;12.486;2023-03-18T11:19:21;13.32;;;9.73;;
13244;SDS011;6689;53.400;12.486;2023-03-18T11:22:04;11.05;;;8.25;;
13244;SDS011;6689;53.400;12.486;2023-03-18T11:24:40;14.15;;;10.80;;
13244;SDS011;6689;53.400;12.486;2023-03-18T11:30:08;10.95;;;9.85;;
13244;SDS011;6689;53.400;12.486;2023-03-18T11:32:50;12.20;;;10.35;;
13244;SDS011;6689;53.400;12.486;2023-03-18T11:35:20;14.90;;;10.48;;
13244;SDS011;6689;53.400;12.486;2023-03-18T11:37:50;15.40;;;10.98;;
13244;SDS011;6689;53.400;12.486;2023-03-18T11:40:19;16.70;;;10.63;;
13244;SDS011;6689;53.400;12.486;2023-03-18T11:42:54;16.13;;;11.10;;
13244;SDS011;6689;53.400;12.486;2023-03-18T11:45:30;22.63;;;11.48;;
13244;SDS011;6689;53.400;12.486;2023-03-18T11:48:05;14.27;;;11.43;;
13244;SDS011;6689;53.400;12.486;2023-03-18T11:50:41;17.73;;;11.82;;
13244;SDS011;6689;53.400;12.486;2023-03-18T11:53:27;19.35;;;11.43;;
13244;SDS011;6689;53.400;12.486;2023-03-18T11:56:03;14.55;;;12.07;;
13244;SDS011;6689;53.400;12.486;2023-03-18T12:01:36;16.02;;;11.57;;
13244;SDS011;6689;53.400;12.486;2023-03-18T12:04:13;17.20;;;11.02;;
13244;SDS011;6689;53.400;12.486;2023-03-18T12:07:11;18.42;;;11.20;;
13244;SDS011;6689;53.400;12.486;2023-03-18T12:09:51;16.27;;;11.48;;
13244;SDS011;6689;53.400;12.486;2023-03-18T12:12:33;17.30;;;12.02;;
13244;SDS011;6689;53.400;12.486;2023-03-18T12:15:13;15.45;;;12.15;;
13244;SDS011;6689;53.400;12.486;2023-03-18T12:17:51;15.05;;;12.18;;
13244;SDS011;6689;53.400;12.486;2023-03-18T12:20:33;14.35;;;11.45;;
13244;SDS011;6689;53.400;12.486;2023-03-18T12:23:13;14.35;;;10.75;;
13244;SDS011;6689;53.400;12.486;2023-03-18T12:25:59;16.83;;;10.50;;
13244;SDS011;6689;53.400;12.486;2023-03-18T12:28:41;15.43;;;9.65;;
13244;SDS011;6689;53.400;12.486;2023-03-18T12:31:34;16.20;;;9.82;;
13244;SDS011;6689;53.400;12.486;2023-03-18T12:34:13;15.13;;;10.40;;
13244;SDS011;6689;53.400;12.486;2023-03-18T12:36:59;18.40;;;10.55;;
13244;SDS011;6689;53.400;12.486;2023-03-18T12:39:42;15.15;;;10.35;;
13244;SDS011;6689;53.400;12.486;2023-03-18T12:42:26;12.38;;;9.48;;
13244;SDS011;6689;53.400;12.486;2023-03-18T12:45:02;20.23;;;10.15;;
13244;SDS011;6689;53.400;12.486;2023-03-18T12:47:37;12.60;;;10.45;;
13244;SDS011;6689;53.400;12.486;2023-03-18T12:50:12;16.20;;;9.70;;
13244;SDS011;6689;53.400;12.486;2023-03-18T12:55:14;16.90;;;10.07;;
13244;SDS011;6689;53.400;12.486;2023-03-18T12:57:47;13.52;;;8.80;;
13244;SDS011;6689;53.400;12.486;2023-03-18T13:00:20;17.25;;;9.35;;
13244;SDS011;6689;53.400;12.486;2023-03-18T13:05:43;18.38;;;10.60;;
13244;SDS011;6689;53.400;12.486;2023-03-18T13:08:22;13.45;;;9.23;;
13244;SDS011;6689;53.400;12.486;2023-03-18T13:11:07;13.40;;;9.60;;
13244;SDS011;6689;53.400;12.486;2023-03-18T13:13:39;13.97;;;8.83;;
13244;SDS011;6689;53.400;12.486;2023-03-18T13:16:11;12.38;;;8.25;;
13244;SDS011;6689;53.400;12.486;2023-03-18T13:18:42;11.80;;;8.65;;
13244;SDS011;6689;53.400;12.486;2023-03-18T13:21:13;13.38;;;9.60;;
13244;SDS011;6689;53.400;12.486;2023-03-18T13:23:51;12.07;;;8.75;;
13244;SDS011;6689;53.400;12.486;2023-03-18T13:26:42;12.38;;;8.00;;
13244;SDS011;6689;53.400;12.486;2023-03-18T13:29:24;14.13;;;8.95;;
13244;SDS011;6689;53.400;12.486;2023-03-18T13:32:02;12.90;;;8.70;;
13244;SDS011;6689;53.400;12.486;2023-03-18T13:34:50;13.77;;;8.40;;
13244;SDS011;6689;53.400;12.486;2023-03-18T13:37:43;12.18;;;7.93;;
13244;SDS011;6689;53.400;12.486;2023-03-18T13:40:35;9.30;;;7.88;;
13244;SDS011;6689;53.400;12.486;2023-03-18T13:43:10;17.23;;;9.40;;
13244;SDS011;6689;53.400;12.486;2023-03-18T13:45:41;11.65;;;9.30;;
13244;SDS011;6689;53.400;12.486;2023-03-18T13:48:12;10.85;;;8.02;;
13244;SDS011;6689;53.400;12.486;2023-03-18T13:50:44;16.58;;;9.35;;
13244;SDS011;6689;53.400;12.486;2023-03-18T13:53:19;13.68;;;8.07;;
13244;SDS011;6689;53.400;12.486;2023-03-18T13:55:59;12.40;;;8.65;;
13244;SDS011;6689;53.400;12.486;2023-03-18T13:58:28;9.48;;;8.40;;
13244;SDS011;6689;53.400;12.486;2023-03-18T14:01:13;12.73;;;8.02;;
13244;SDS011;6689;53.400;12.486;2023-03-18T14:03:58;13.65;;;9.45;;
13244;SDS011;6689;53.400;12.486;2023-03-18T14:06:50;11.55;;;9.05;;
13244;SDS011;6689;53.400;12.486;2023-03-18T14:09:21;13.10;;;7.80;;
13244;SDS011;6689;53.400;12.486;2023-03-18T14:12:01;14.13;;;7.95;;
13244;SDS011;6689;53.400;12.486;2023-03-18T14:17:45;10.27;;;7.38;;
13244;SDS011;6689;53.400;12.486;2023-03-18T14:26:05;11.43;;;7.22;;
13244;SDS011;6689;53.400;12.486;2023-03-18T14:28:43;13.98;;;7.82;;
13244;SDS011;6689;53.400;12.486;2023-03-18T14:31:31;12.45;;;7.00;;
13244;SDS011;6689;53.400;12.486;2023-03-18T14:34:24;11.55;;;6.97;;
13244;SDS011;6689;53.400;12.486;2023-03-18T14:40:05;11.13;;;8.20;;
13244;SDS011;6689;53.400;12.486;2023-03-18T14:42:44;10.02;;;6.50;;
13244;SDS011;6689;53.400;12.486;2023-03-18T14:45:19;11.65;;;7.43;;
13244;SDS011;6689;53.400;12.486;2023-03-18T14:47:50;11.48;;;6.72;;
13244;SDS011;6689;53.400;12.486;2023-03-18T14:50:30;10.38;;;7.28;;
13244;SDS011;6689;53.400;12.486;2023-03-18T14:53:04;10.18;;;7.22;;
13244;SDS011;6689;53.400;12.486;2023-03-18T14:55:41;11.48;;;7.32;;
13244;SDS011;6689;53.400;12.486;2023-03-18T14:58:10;12.35;;;6.57;;
13244;SDS011;6689;53.400;12.486;2023-03-18T15:00:42;11.77;;;6.75;;
13244;SDS011;6689;53.400;12.486;2023-03-18T15:03:12;10.68;;;6.93;;
13244;SDS011;6689;53.400;12.486;2023-03-18T15:05:42;9.65;;;7.03;;
13244;SDS011;6689;53.400;12.486;2023-03-18T15:08:12;9.10;;;6.53;;
13244;SDS011;6689;53.400;12.486;2023-03-18T15:10:44;9.68;;;6.30;;
13244;SDS011;6689;53.400;12.486;2023-03-18T15:13:13;11.45;;;7.40;;
13244;SDS011;6689;53.400;12.486;2023-03-18T15:15:42;9.52;;;6.85;;
13244;SDS011;6689;53.400;12.486;2023-03-18T15:18:14;13.63;;;7.50;;
13244;SDS011;6689;53.400;12.486;2023-03-18T15:20:45;9.52;;;6.88;;
13244;SDS011;6689;53.400;12.486;2023-03-18T15:23:16;9.30;;;7.60;;
13244;SDS011;6689;53.400;12.486;2023-03-18T15:25:51;8.90;;;6.35;;